createdAt,value
2019-02-26T00:02:21.941Z,1.70
2019-02-26T00:04:53.973Z,2.43
2019-02-26T00:07:27.063Z,2.23
2019-02-26T00:09:55.834Z,1.83
2019-02-26T00:12:26.465Z,1.93
2019-02-26T00:14:57.504Z,2.43
2019-02-26T00:17:28.080Z,1.83
2019-02-26T00:19:57.553Z,1.93
2019-02-26T00:22:26.959Z,2.77
2019-02-26T00:24:56.458Z,1.90
2019-02-26T00:27:26.246Z,2.60
2019-02-26T00:29:57.506Z,2.00
2019-02-26T00:32:26.739Z,2.03
2019-02-26T00:34:57.994Z,1.57
2019-02-26T00:37:28.413Z,1.50
2019-02-26T00:39:59.015Z,1.60
2019-02-26T00:42:28.788Z,1.87
2019-02-26T00:45:00.943Z,1.63
2019-02-26T00:47:31.826Z,1.83
2019-02-26T00:50:00.347Z,1.60
2019-02-26T00:52:30.499Z,1.80
2019-02-26T00:55:05.432Z,2.20
2019-02-26T00:57:38.304Z,1.57
2019-02-26T01:00:09.944Z,1.70
2019-02-26T01:02:39.837Z,1.67
2019-02-26T01:05:11.300Z,1.90
2019-02-26T01:07:42.112Z,1.20
2019-02-26T01:10:13.390Z,1.90
2019-02-26T01:12:42.640Z,1.20
2019-02-26T01:15:14.076Z,1.30
2019-02-26T01:17:43.200Z,1.50
2019-02-26T01:20:14.558Z,1.30
2019-02-26T01:22:45.362Z,1.53
2019-02-26T01:25:15.884Z,1.80
2019-02-26T01:27:47.921Z,2.37
2019-02-26T01:30:21.330Z,1.73
2019-02-26T01:32:48.119Z,1.53
2019-02-26T01:35:17.211Z,1.23
2019-02-26T01:37:46.118Z,1.23
2019-02-26T01:40:18.401Z,1.30
2019-02-26T01:42:49.823Z,1.60
2019-02-26T01:45:19.651Z,1.47
2019-02-26T01:47:51.009Z,1.13
2019-02-26T01:50:19.984Z,1.20
2019-02-26T01:52:51.280Z,1.23
2019-02-26T01:55:22.830Z,1.30
2019-02-26T01:57:52.234Z,1.40
2019-02-26T02:00:21.239Z,1.30
2019-02-26T02:02:50.517Z,1.20
2019-02-26T02:05:21.629Z,1.70
2019-02-26T02:07:51.948Z,1.70
2019-02-26T02:10:22.364Z,0.90
2019-02-26T02:12:55.171Z,1.73
2019-02-26T02:15:23.698Z,1.60
2019-02-26T02:17:56.637Z,1.30
2019-02-26T02:20:24.375Z,1.40
2019-02-26T02:22:55.866Z,1.10
2019-02-26T02:25:24.684Z,1.30
2019-02-26T02:27:55.029Z,1.30
2019-02-26T02:30:30.385Z,1.00
2019-02-26T02:32:58.966Z,1.10
2019-02-26T02:35:26.417Z,1.17
2019-02-26T02:37:57.097Z,1.10
2019-02-26T02:40:26.875Z,1.10
2019-02-26T02:42:56.273Z,1.87
2019-02-26T02:45:25.491Z,1.07
2019-02-26T02:47:57.675Z,1.17
2019-02-26T02:50:25.087Z,1.03
2019-02-26T02:52:56.144Z,1.00
2019-02-26T02:55:25.330Z,0.87
2019-02-26T02:57:55.084Z,0.87
2019-02-26T03:00:26.626Z,1.10
2019-02-26T03:02:58.341Z,0.80
2019-02-26T03:05:31.358Z,1.00
2019-02-26T03:07:58.867Z,1.00
2019-02-26T03:10:31.032Z,0.90
2019-02-26T03:13:01.021Z,0.67
2019-02-26T03:15:33.752Z,0.80
2019-02-26T03:18:04.136Z,0.80
2019-02-26T03:20:39.235Z,0.80
2019-02-26T03:23:09.263Z,0.50
2019-02-26T03:25:37.928Z,1.27
2019-02-26T03:28:07.491Z,1.03
2019-02-26T03:30:40.560Z,1.20
2019-02-26T03:33:07.912Z,0.70
2019-02-26T03:35:37.075Z,0.97
2019-02-26T03:38:06.612Z,0.80
2019-02-26T03:40:36.527Z,1.00
2019-02-26T03:43:07.597Z,1.13
2019-02-26T03:45:36.320Z,0.83
2019-02-26T03:48:05.703Z,0.90
2019-02-26T03:50:34.843Z,0.90
2019-02-26T03:53:04.221Z,0.70
2019-02-26T03:55:36.013Z,0.83
2019-02-26T03:58:04.776Z,1.20
2019-02-26T04:00:35.606Z,0.50
2019-02-26T04:03:09.235Z,1.30
2019-02-26T04:05:36.751Z,6.90
2019-02-26T04:08:06.014Z,3.27
2019-02-26T04:10:35.463Z,0.87
2019-02-26T04:13:04.918Z,1.20
2019-02-26T04:15:36.399Z,0.80
2019-02-26T04:18:05.577Z,0.87
2019-02-26T04:20:35.270Z,0.87
2019-02-26T04:23:04.716Z,0.93
2019-02-26T04:26:01.897Z,2.90
2019-02-26T04:28:37.143Z,1.20
2019-02-26T04:32:02.888Z,1.23
2019-02-26T04:35:02.864Z,1.53
2019-02-26T04:38:23.374Z,1.00
2019-02-26T04:41:25.836Z,1.60
2019-02-26T04:44:07.225Z,1.43
2019-02-26T04:46:53.918Z,1.13
2019-02-26T04:49:27.209Z,1.43
2019-02-26T04:51:55.784Z,1.00
2019-02-26T04:54:27.151Z,0.93
2019-02-26T04:56:56.089Z,0.90
2019-02-26T04:59:25.325Z,1.03
2019-02-26T05:01:55.609Z,0.87
2019-02-26T05:04:28.025Z,1.20
2019-02-26T05:06:57.457Z,0.70
2019-02-26T05:09:27.941Z,0.60
2019-02-26T05:11:57.932Z,0.73
2019-02-26T05:14:26.755Z,0.83
2019-02-26T05:16:56.296Z,1.00
2019-02-26T05:19:25.201Z,1.20
2019-02-26T05:21:56.782Z,0.90
2019-02-26T05:24:26.291Z,1.07
2019-02-26T05:26:55.677Z,1.13
2019-02-26T05:29:25.062Z,1.10
2019-02-26T05:31:55.609Z,1.27
2019-02-26T05:34:25.976Z,2.13
2019-02-26T05:36:55.622Z,2.63
2019-02-26T05:39:26.731Z,3.57
2019-02-26T05:41:58.895Z,3.70
2019-02-26T05:44:27.984Z,3.87
2019-02-26T05:46:58.786Z,3.60
2019-02-26T05:49:31.545Z,2.40
2019-02-26T05:52:01.667Z,2.30
2019-02-26T05:54:31.129Z,1.80
2019-02-26T05:57:01.818Z,1.50
2019-02-26T05:59:31.604Z,1.00
2019-02-26T06:02:02.901Z,0.80
2019-02-26T06:04:35.099Z,0.63
2019-02-26T06:07:05.455Z,0.80
2019-02-26T06:09:34.746Z,1.40
2019-02-26T06:12:03.884Z,1.77
2019-02-26T06:14:33.786Z,1.70
2019-02-26T06:17:04.304Z,1.97
2019-02-26T06:19:51.305Z,1.50
2019-02-26T06:22:23.298Z,1.13
2019-02-26T06:24:54.958Z,1.60
2019-02-26T06:27:24.499Z,2.27
2019-02-26T06:29:55.460Z,3.23
2019-02-26T06:32:27.398Z,1.97
2019-02-26T06:34:54.503Z,2.27
2019-02-26T06:37:24.275Z,1.63
2019-02-26T06:39:55.694Z,1.93
2019-02-26T06:42:24.767Z,1.63
2019-02-26T06:44:53.672Z,1.40
2019-02-26T06:47:24.112Z,1.80
2019-02-26T06:49:53.802Z,1.70
2019-02-26T06:52:23.005Z,1.47
2019-02-26T06:54:57.277Z,1.10
2019-02-26T06:57:22.945Z,2.10
2019-02-26T06:59:53.691Z,1.87
2019-02-26T07:02:28.256Z,1.90
2019-02-26T07:04:54.543Z,2.13
2019-02-26T07:07:23.732Z,2.03
2019-02-26T07:09:53.191Z,2.20
2019-02-26T07:12:23.999Z,2.33
2019-02-26T07:14:55.337Z,1.80
2019-02-26T07:17:26.888Z,1.67
2019-02-26T07:19:57.719Z,1.40
2019-02-26T07:22:27.101Z,1.90
2019-02-26T07:24:56.457Z,1.40
2019-02-26T07:27:26.422Z,1.00
2019-02-26T07:29:56.848Z,1.07
2019-02-26T07:32:26.224Z,1.10
2019-02-26T07:34:55.075Z,1.10
2019-02-26T07:37:24.564Z,1.40
2019-02-26T07:39:53.739Z,1.60
2019-02-26T07:42:22.615Z,1.47
2019-02-26T07:44:51.516Z,1.63
2019-02-26T07:47:22.100Z,1.77
2019-02-26T07:49:51.284Z,2.83
2019-02-26T07:52:21.577Z,1.70
2019-02-26T07:54:51.887Z,1.90
2019-02-26T07:57:23.018Z,2.33
2019-02-26T07:59:52.243Z,1.70
2019-02-26T08:02:21.565Z,1.67
2019-02-26T08:04:50.436Z,1.47
2019-02-26T08:07:21.527Z,1.47
2019-02-26T08:09:50.563Z,1.50
2019-02-26T08:12:19.735Z,1.33
2019-02-26T08:14:50.117Z,1.43
2019-02-26T08:17:19.547Z,1.40
2019-02-26T08:19:49.397Z,1.13
2019-02-26T08:22:18.394Z,1.53
2019-02-26T08:24:50.328Z,1.70
2019-02-26T08:27:19.363Z,1.70
2019-02-26T08:29:49.438Z,3.13
2019-02-26T08:32:21.015Z,4.03
2019-02-26T08:34:50.743Z,2.77
2019-02-26T08:37:19.856Z,2.10
2019-02-26T08:39:48.833Z,1.83
2019-02-26T08:42:17.973Z,1.87
2019-02-26T08:44:48.664Z,1.43
2019-02-26T08:47:19.265Z,1.40
2019-02-26T08:49:49.052Z,1.17
2019-02-26T08:52:21.892Z,0.90
2019-02-26T08:54:50.089Z,1.30
2019-02-26T08:57:19.412Z,0.97
2019-02-26T08:59:49.642Z,0.90
2019-02-26T09:02:19.705Z,0.97
2019-02-26T09:04:48.936Z,0.93
2019-02-26T09:07:19.550Z,1.07
2019-02-26T09:09:50.032Z,1.17
2019-02-26T09:12:22.253Z,1.40
2019-02-26T09:14:51.522Z,1.17
2019-02-26T09:17:23.136Z,1.57
2019-02-26T09:19:56.006Z,1.20
2019-02-26T09:22:24.262Z,1.80
2019-02-26T09:24:54.599Z,1.43
2019-02-26T09:27:27.191Z,1.10
2019-02-26T09:29:56.998Z,1.53
2019-02-26T09:32:28.249Z,1.40
2019-02-26T09:34:59.161Z,2.13
2019-02-26T09:37:28.558Z,1.20
2019-02-26T09:39:59.325Z,1.03
2019-02-26T09:42:30.121Z,0.80
2019-02-26T09:45:00.182Z,1.00
2019-02-26T09:47:32.851Z,1.53
2019-02-26T09:50:00.549Z,1.10
2019-02-26T09:52:30.325Z,1.13
2019-02-26T09:55:00.496Z,1.03
2019-02-26T09:57:29.572Z,1.07
2019-02-26T10:00:00.124Z,0.63
2019-02-26T10:02:29.957Z,0.90
2019-02-26T10:04:59.067Z,1.27
2019-02-26T10:07:30.699Z,0.80
2019-02-26T10:10:01.159Z,1.00
2019-02-26T10:12:32.170Z,0.83
2019-02-26T10:15:05.233Z,0.70
2019-02-26T10:17:35.677Z,0.70
2019-02-26T10:20:09.294Z,0.90
2019-02-26T10:22:40.353Z,0.70
2019-02-26T10:25:09.068Z,1.00
2019-02-26T10:27:40.719Z,1.07
2019-02-26T10:30:14.221Z,0.73
2019-02-26T10:32:44.049Z,1.10
2019-02-26T10:35:18.644Z,0.80
2019-02-26T10:37:56.845Z,0.90
2019-02-26T10:40:34.734Z,1.10
2019-02-26T10:42:57.384Z,1.03
2019-02-26T10:45:27.596Z,1.00
2019-02-26T10:47:58.925Z,1.10
2019-02-26T10:50:31.548Z,1.40
2019-02-26T10:53:06.853Z,1.40
2019-02-26T10:55:35.354Z,1.20
2019-02-26T10:58:04.738Z,1.60
2019-02-26T11:00:34.761Z,1.63
2019-02-26T11:03:02.688Z,1.77
2019-02-26T11:05:31.980Z,1.87
2019-02-26T11:08:02.895Z,1.60
2019-02-26T11:10:32.182Z,1.67
2019-02-26T11:13:03.660Z,1.77
2019-02-26T11:15:35.806Z,1.73
2019-02-26T11:18:04.177Z,1.50
2019-02-26T11:20:34.325Z,1.30
2019-02-26T11:23:06.125Z,2.20
2019-02-26T11:25:36.914Z,1.40
2019-02-26T11:28:07.542Z,1.60
2019-02-26T11:30:36.544Z,1.77
2019-02-26T11:33:08.033Z,1.60
2019-02-26T11:35:36.546Z,2.00
2019-02-26T11:38:05.472Z,1.60
2019-02-26T11:40:34.680Z,1.77
2019-02-26T11:43:11.162Z,1.90
2019-02-26T11:45:36.982Z,1.87
2019-02-26T11:48:08.825Z,1.90
2019-02-26T11:50:38.396Z,1.90
2019-02-26T11:53:09.514Z,1.93
2019-02-26T11:55:37.947Z,1.60
2019-02-26T11:58:10.067Z,1.77
2019-02-26T12:00:45.474Z,2.23
2019-02-26T12:03:14.894Z,1.53
2019-02-26T12:05:44.157Z,2.03
2019-02-26T12:08:16.338Z,1.90
2019-02-26T12:10:44.360Z,2.10
2019-02-26T12:13:16.974Z,3.30
2019-02-26T12:15:45.316Z,2.67
2019-02-26T12:18:16.866Z,3.07
2019-02-26T12:20:48.083Z,2.70
2019-02-26T12:23:19.009Z,3.30
2019-02-26T12:25:49.745Z,3.60
2019-02-26T12:28:18.250Z,3.80
2019-02-26T12:30:47.673Z,4.00
2019-02-26T12:33:16.844Z,4.07
2019-02-26T12:35:46.030Z,3.27
2019-02-26T12:38:20.627Z,4.13
2019-02-26T12:40:47.950Z,3.50
2019-02-26T12:43:19.255Z,3.87
2019-02-26T12:45:48.372Z,3.13
2019-02-26T12:48:21.953Z,3.30
2019-02-26T12:50:48.462Z,2.80
2019-02-26T12:53:20.587Z,3.00
2019-02-26T12:55:49.176Z,3.53
2019-02-26T12:58:20.715Z,3.10
2019-02-26T13:00:49.579Z,3.20
2019-02-26T13:03:19.858Z,3.33
2019-02-26T13:05:51.610Z,2.93
2019-02-26T13:08:24.179Z,2.97
2019-02-26T13:10:56.200Z,3.20
2019-02-26T13:13:23.259Z,2.80
2019-02-26T13:15:52.391Z,2.50
2019-02-26T13:18:21.842Z,2.93
2019-02-26T13:20:56.784Z,2.73
2019-02-26T13:23:22.516Z,3.13
2019-02-26T13:25:51.882Z,2.70
2019-02-26T13:28:21.136Z,3.30
2019-02-26T13:31:07.894Z,3.87
2019-02-26T13:33:41.061Z,2.97
2019-02-26T13:36:08.533Z,2.90
2019-02-26T13:41:28.862Z,3.07
2019-02-26T13:43:40.588Z,2.97
2019-02-26T13:46:09.559Z,2.83
2019-02-26T13:48:38.573Z,2.73
2019-02-26T13:51:07.601Z,2.50
2019-02-26T13:53:36.840Z,1.83
2019-02-26T13:56:06.294Z,1.83
2019-02-26T13:58:35.804Z,2.00
2019-02-26T14:01:06.408Z,2.03
2019-02-26T14:03:35.575Z,2.20
2019-02-26T14:06:05.185Z,2.03
2019-02-26T14:08:34.476Z,2.20
2019-02-26T14:11:03.768Z,2.00
2019-02-26T14:13:33.060Z,2.43
2019-02-26T14:16:03.025Z,1.90
2019-02-26T14:18:32.472Z,2.03
2019-02-26T14:21:01.945Z,1.80
2019-02-26T14:23:35.001Z,1.57
2019-02-26T14:26:03.060Z,2.23
2019-02-26T14:28:32.619Z,2.03
2019-02-26T14:31:02.808Z,1.97
2019-02-26T14:33:31.615Z,1.93
2019-02-26T14:36:00.720Z,1.80
2019-02-26T14:38:30.308Z,1.73
2019-02-26T14:41:00.115Z,1.83
2019-02-26T14:43:29.636Z,1.83
2019-02-26T14:45:59.186Z,2.00
2019-02-26T14:48:28.224Z,2.10
2019-02-26T14:50:57.404Z,1.83
2019-02-26T14:53:27.665Z,1.80
2019-02-26T14:55:56.912Z,1.50
2019-02-26T14:58:25.796Z,1.70
2019-02-26T15:00:57.884Z,1.40
2019-02-26T15:03:25.848Z,1.60
2019-02-26T15:05:55.494Z,1.50
2019-02-26T15:08:25.058Z,1.63
2019-02-26T15:10:53.947Z,1.37
2019-02-26T15:13:23.224Z,1.00
2019-02-26T15:15:52.423Z,1.63
2019-02-26T15:18:21.604Z,1.23
2019-02-26T15:20:51.134Z,0.93
2019-02-26T15:23:20.285Z,1.23
2019-02-26T15:25:49.684Z,1.20
2019-02-26T15:28:19.101Z,1.60
2019-02-26T15:30:48.316Z,1.17
2019-02-26T15:33:17.412Z,1.10
2019-02-26T15:35:47.019Z,1.03
2019-02-26T15:38:16.183Z,1.20
2019-02-26T15:40:45.720Z,1.00
2019-02-26T15:43:15.305Z,1.23
2019-02-26T15:45:51.778Z,1.30
2019-02-26T15:48:14.980Z,1.23
2019-02-26T15:50:44.192Z,1.33
2019-02-26T15:53:13.853Z,1.20
2019-02-26T15:55:43.087Z,1.20
2019-02-26T15:58:12.264Z,1.23
2019-02-26T16:00:43.647Z,1.73
2019-02-26T16:03:12.917Z,1.10
2019-02-26T16:05:41.997Z,1.30
2019-02-26T16:08:11.562Z,1.03
2019-02-26T16:10:40.612Z,1.30
2019-02-26T16:13:09.756Z,1.23
2019-02-26T16:15:39.624Z,1.27
2019-02-26T16:18:08.543Z,1.50
2019-02-26T16:20:37.530Z,1.20
2019-02-26T16:23:07.108Z,1.20
2019-02-26T16:25:35.992Z,1.63
2019-02-26T16:28:05.305Z,1.47
2019-02-26T16:30:34.708Z,1.30
2019-02-26T16:33:04.621Z,2.10
2019-02-26T16:35:33.852Z,2.03
2019-02-26T16:38:03.367Z,2.97
2019-02-26T16:40:32.808Z,3.00
2019-02-26T16:43:05.728Z,2.50
2019-02-26T16:45:35.281Z,5.80
2019-02-26T16:48:04.361Z,3.20
2019-02-26T16:50:33.395Z,2.37
2019-02-26T16:53:02.291Z,2.30
2019-02-26T16:55:32.008Z,2.37
2019-02-26T16:58:03.148Z,1.60
2019-02-26T17:00:32.239Z,1.90
2019-02-26T17:03:01.417Z,1.60
2019-02-26T17:05:30.709Z,2.60
2019-02-26T17:07:59.929Z,2.97
2019-02-26T17:10:30.587Z,2.70
2019-02-26T17:13:02.438Z,1.30
2019-02-26T17:15:30.552Z,1.97
2019-02-26T17:17:59.915Z,1.50
2019-02-26T17:20:29.167Z,1.53
2019-02-26T17:22:58.527Z,1.20
2019-02-26T17:25:29.015Z,1.43
2019-02-26T17:27:58.147Z,1.23
2019-02-26T17:30:27.507Z,1.63
2019-02-26T17:35:36.732Z,1.40
2019-02-26T17:38:05.707Z,1.30
2019-02-26T17:40:36.627Z,1.10
2019-02-26T17:43:05.476Z,1.20
2019-02-26T17:45:37.143Z,1.20
2019-02-26T17:48:05.902Z,1.40
2019-02-26T17:50:35.705Z,1.27
2019-02-26T17:53:05.312Z,0.83
2019-02-26T17:55:34.262Z,1.07
2019-02-26T17:58:03.550Z,1.17
2019-02-26T18:00:35.144Z,1.33
2019-02-26T18:03:07.399Z,1.27
2019-02-26T18:05:40.462Z,1.30
2019-02-26T18:08:06.193Z,1.30
2019-02-26T18:10:36.632Z,1.43
2019-02-26T18:13:05.900Z,1.50
2019-02-26T18:15:35.605Z,1.20
2019-02-26T18:18:04.554Z,2.80
2019-02-26T18:20:33.795Z,2.33
2019-02-26T18:23:03.112Z,3.20
2019-02-26T18:25:32.366Z,2.90
2019-02-26T18:28:01.606Z,2.70
2019-02-26T18:30:31.120Z,2.47
2019-02-26T18:33:00.353Z,2.47
2019-02-26T18:35:29.609Z,2.60
2019-02-26T18:37:58.936Z,1.90
2019-02-26T18:40:28.936Z,1.67
2019-02-26T18:42:58.109Z,1.63
2019-02-26T18:45:27.885Z,1.97
2019-02-26T18:47:57.879Z,1.97
2019-02-26T18:50:28.615Z,1.20
2019-02-26T18:52:58.738Z,1.30
2019-02-26T18:55:29.405Z,1.27
2019-02-26T18:57:58.684Z,1.17
2019-02-26T19:00:28.346Z,1.40
2019-02-26T19:02:57.368Z,1.60
2019-02-26T19:05:26.275Z,2.20
2019-02-26T19:07:55.755Z,1.87
2019-02-26T19:10:25.036Z,2.37
2019-02-26T19:12:54.172Z,1.50
2019-02-26T19:15:23.588Z,2.00
2019-02-26T19:17:53.542Z,1.70
2019-02-26T19:20:25.071Z,1.90
2019-02-26T19:22:58.556Z,1.73
2019-02-26T19:25:26.544Z,1.30
2019-02-26T19:27:55.528Z,1.90
2019-02-26T19:30:24.843Z,1.90
2019-02-26T19:32:54.339Z,2.20
2019-02-26T19:35:24.128Z,1.93
2019-02-26T19:37:55.885Z,1.97
2019-02-26T19:40:30.434Z,1.23
2019-02-26T19:42:59.592Z,1.70
2019-02-26T19:45:28.988Z,1.60
2019-02-26T19:47:58.488Z,1.70
2019-02-26T19:50:27.507Z,1.60
2019-02-26T19:52:59.861Z,1.93
2019-02-26T19:55:30.692Z,1.63
2019-02-26T19:58:02.836Z,1.73
2019-02-26T20:00:30.904Z,1.63
2019-02-26T20:03:04.877Z,1.43
2019-02-26T20:05:31.641Z,1.50
2019-02-26T20:08:05.296Z,1.40
2019-02-26T20:10:34.592Z,1.63
2019-02-26T20:13:04.308Z,1.93
2019-02-26T20:15:33.679Z,1.90
2019-02-26T20:18:04.319Z,24.43
2019-02-26T20:20:40.517Z,14.33
2019-02-26T20:23:06.000Z,14.87
2019-02-26T20:25:35.037Z,5.10
2019-02-26T20:28:05.745Z,14.00
2019-02-26T20:30:35.472Z,14.50
2019-02-26T20:33:05.719Z,10.60
2019-02-26T20:35:34.893Z,3.87
2019-02-26T20:38:04.909Z,3.70
2019-02-26T20:40:34.413Z,4.33
2019-02-26T20:43:05.387Z,2.00
2019-02-26T20:45:34.964Z,2.30
2019-02-26T20:48:04.884Z,3.20
2019-02-26T20:50:34.437Z,2.60
2019-02-26T20:53:06.962Z,2.93
2019-02-26T20:55:36.169Z,2.90
2019-02-26T20:58:05.106Z,2.47
2019-02-26T21:00:34.248Z,2.90
2019-02-26T21:03:05.515Z,3.03
2019-02-26T21:05:35.276Z,3.50
2019-02-26T21:08:04.810Z,2.57
2019-02-26T21:10:33.929Z,4.53
2019-02-26T21:13:05.750Z,3.07
2019-02-26T21:15:34.576Z,2.20
2019-02-26T21:18:04.694Z,1.57
2019-02-26T21:20:33.978Z,1.40
2019-02-26T21:23:04.081Z,1.47
2019-02-26T21:25:33.601Z,1.50
2019-02-26T21:28:05.731Z,1.67
2019-02-26T21:30:34.586Z,1.90
2019-02-26T21:33:03.514Z,2.10
2019-02-26T21:35:32.861Z,1.70
2019-02-26T21:38:05.687Z,2.50
2019-02-26T21:40:33.116Z,2.03
2019-02-26T21:43:04.571Z,1.30
2019-02-26T21:45:33.856Z,1.90
2019-02-26T21:48:03.358Z,1.90
2019-02-26T21:50:32.468Z,1.73
2019-02-26T21:53:01.912Z,1.77
2019-02-26T21:55:40.646Z,2.00
2019-02-26T21:58:01.796Z,1.57
2019-02-26T22:00:33.533Z,1.80
2019-02-26T22:03:02.829Z,1.40
2019-02-26T22:05:32.744Z,1.77
2019-02-26T22:08:03.986Z,7.57
2019-02-26T22:10:33.288Z,8.10
2019-02-26T22:13:04.687Z,3.73
2019-02-26T22:15:36.162Z,4.23
2019-02-26T22:18:05.204Z,2.67
2019-02-26T22:20:36.483Z,2.70
2019-02-26T22:23:05.725Z,2.90
2019-02-26T22:25:35.357Z,2.50
2019-02-26T22:28:04.323Z,2.37
2019-02-26T22:30:33.236Z,2.40
2019-02-26T22:33:02.891Z,2.00
2019-02-26T22:35:31.952Z,2.43
2019-02-26T22:38:01.099Z,2.10
2019-02-26T22:40:30.597Z,2.87
2019-02-26T22:42:59.517Z,2.40
2019-02-26T22:45:29.021Z,2.03
2019-02-26T22:47:58.117Z,2.50
2019-02-26T22:50:27.826Z,2.13
2019-02-26T22:52:57.249Z,1.90
2019-02-26T22:55:26.384Z,2.10
2019-02-26T22:57:55.513Z,1.97
2019-02-26T23:01:12.448Z,2.43
2019-02-26T23:03:45.729Z,1.90
2019-02-26T23:06:12.584Z,1.97
2019-02-26T23:08:44.560Z,2.10
2019-02-26T23:11:14.749Z,2.10
2019-02-26T23:13:44.023Z,2.30
2019-02-26T23:16:18.112Z,2.40
2019-02-26T23:18:44.957Z,2.80
2019-02-26T23:21:15.660Z,2.10
2019-02-26T23:23:45.512Z,2.10
2019-02-26T23:26:14.715Z,2.80
2019-02-26T23:28:44.420Z,2.70
2019-02-26T23:31:14.621Z,2.60
2019-02-26T23:33:47.844Z,2.50
2019-02-26T23:36:14.523Z,1.97
2019-02-26T23:38:44.704Z,4.47
2019-02-26T23:41:14.383Z,3.73
2019-02-26T23:43:45.456Z,2.87
2019-02-26T23:46:14.902Z,2.30
2019-02-26T23:48:43.968Z,2.30
2019-02-26T23:51:13.300Z,4.50
2019-02-26T23:53:42.383Z,2.90
2019-02-26T23:56:12.091Z,2.63
2019-02-26T23:58:41.228Z,2.63
